Terminal Aerodrome Forecast
Issued by NWS

Home | Current Version | Previous Version | Text Only | Print | Product List | Glossary On
Versions: 1 2 3 4 5 6 7 8 9 10 11 12 13 14 15 16
470
FTUS43 KAPX 250539
TAFMBL
TAF
KMBL 250539Z 2506/2606 29005KT 5SM BR SCT050 BKN200
      TEMPO 2506/2509 2SM BR
     FM251300 30008KT P6SM SKC
     FM251700 30012G19KT P6SM FEW040
     FM252300 30005KT P6SM SKC=

USA.gov is the U.S. government's official web portal to all federal, state and local government web resources and services.